Campeche Bay — P3ZF9 — position and weather

sailwx.info

Track history (hours):
 
Tides and Currents Weather Stations Pressure Air Temp Water Temp Dewpoint Dewpoint Depression Visibility Wind Speed Wind Dir Waves Ship Positions

Campeche Bay

Last reported at 2017-Oct-17 21:23 UTC. Time now 2017-Nov-19 14:23 UTC.
Position N 27°44' W 082°32'.
Warning: this ship's position is 32 days out of date.

Length 90 m; draft 4 m.

Type: Cargo ship. MMSI: 209641000.

Date/timePositionNaut miles runAvg speedWind from/ knotsBaromVisibWave heightAir tempDewpointWater temp
2017-Oct-17 21:23N 27°44' W 082°32'410.1
2017-Oct-17 21:00N 27°47' W 082°31'5 9.3
2017-Oct-17 20:30N 27°50' W 082°27'4 8.6
2017-Oct-17 20:00N 27°55' W 082°26'0 0.0
2017-Oct-17 19:30N 27°55' W 082°26'0 0.0
2017-Oct-17 19:00N 27°55' W 082°26'0 0.0
2017-Oct-17 18:30N 27°55' W 082°26'0 0.0
2017-Oct-17 18:00N 27°55' W 082°26'0 0.0
2017-Oct-17 17:30N 27°55' W 082°26'0 0.0
2017-Oct-17 17:00N 27°55' W 082°26'0 0.0
2017-Oct-17 16:30N 27°55' W 082°26'0 0.0
2017-Oct-17 16:00N 27°55' W 082°26'0 0.0
2017-Oct-17 15:30N 27°55' W 082°26'0 0.0
2017-Oct-17 15:00N 27°55' W 082°26'0 0.0
2017-Oct-17 14:30N 27°55' W 082°26'3 6.2
2017-Oct-17 14:00N 27°52' W 082°27'4 8.5
2017-Oct-17 13:30N 27°48' W 082°29'4 8.2
2017-Oct-17 13:00N 27°45' W 082°32'  
Track history (hours):
 
Tides and Currents Weather Stations Pressure Air Temp Water Temp Dewpoint Dewpoint Depression Visibility Wind Speed Wind Dir Waves Ship Positions

Campeche Bay

Last reported at 2017-Oct-17 21:23 UTC. Time now 2017-Nov-19 14:23 UTC.
Position N 27°44' W 082°32'.
Warning: this ship's position is 32 days out of date.

Length 90 m; draft 4 m.

Type: Cargo ship. MMSI: 209641000.

Date/timePositionNaut miles runAvg speedWind from/ knotsBaromVisibWave heightAir tempDewpointWater temp
2017-Oct-17 21:23N 27°44' W 082°32'410.1
2017-Oct-17 21:00N 27°47' W 082°31'5 9.3
2017-Oct-17 20:30N 27°50' W 082°27'4 8.6
2017-Oct-17 20:00N 27°55' W 082°26'0 0.0
2017-Oct-17 19:30N 27°55' W 082°26'0 0.0
2017-Oct-17 19:00N 27°55' W 082°26'0 0.0
2017-Oct-17 18:30N 27°55' W 082°26'0 0.0
2017-Oct-17 18:00N 27°55' W 082°26'0 0.0
2017-Oct-17 17:30N 27°55' W 082°26'0 0.0
2017-Oct-17 17:00N 27°55' W 082°26'0 0.0
2017-Oct-17 16:30N 27°55' W 082°26'0 0.0
2017-Oct-17 16:00N 27°55' W 082°26'0 0.0
2017-Oct-17 15:30N 27°55' W 082°26'0 0.0
2017-Oct-17 15:00N 27°55' W 082°26'0 0.0
2017-Oct-17 14:30N 27°55' W 082°26'3 6.2
2017-Oct-17 14:00N 27°52' W 082°27'4 8.5
2017-Oct-17 13:30N 27°48' W 082°29'4 8.2
2017-Oct-17 13:00N 27°45' W 082°32'  

Dump ship's entire track history